sensor_id;sensor_type;location;lat;lon;timestamp;temperature;humidity
31387;DHT22;69978;50.096;8.448;2023-08-21T00:00:11;24.20;99.90
31387;DHT22;69978;50.096;8.448;2023-08-21T00:02:41;24.10;99.90
31387;DHT22;69978;50.096;8.448;2023-08-21T00:05:07;24.10;99.90
31387;DHT22;69978;50.096;8.448;2023-08-21T00:07:33;24.10;99.90
31387;DHT22;69978;50.096;8.448;2023-08-21T00:09:58;24.00;99.90
31387;DHT22;69978;50.096;8.448;2023-08-21T00:12:24;24.00;99.90
31387;DHT22;69978;50.096;8.448;2023-08-21T00:14:49;23.90;99.90
31387;DHT22;69978;50.096;8.448;2023-08-21T00:17:15;23.90;99.90
31387;DHT22;69978;50.096;8.448;2023-08-21T00:19:40;23.90;99.90
31387;DHT22;69978;50.096;8.448;2023-08-21T00:22:06;23.80;99.90
31387;DHT22;69978;50.096;8.448;2023-08-21T00:24:32;23.80;99.90
31387;DHT22;69978;50.096;8.448;2023-08-21T00:26:57;23.80;99.90
31387;DHT22;69978;50.096;8.448;2023-08-21T00:29:23;23.80;99.90
31387;DHT22;69978;50.096;8.448;2023-08-21T00:31:48;23.80;99.90
31387;DHT22;69978;50.096;8.448;2023-08-21T00:34:14;23.80;99.90
31387;DHT22;69978;50.096;8.448;2023-08-21T00:36:40;23.80;99.90
31387;DHT22;69978;50.096;8.448;2023-08-21T00:39:05;23.70;99.90
31387;DHT22;69978;50.096;8.448;2023-08-21T00:41:32;23.70;99.90
31387;DHT22;69978;50.096;8.448;2023-08-21T00:43:59;23.70;99.90
31387;DHT22;69978;50.096;8.448;2023-08-21T00:46:25;23.60;99.90
31387;DHT22;69978;50.096;8.448;2023-08-21T00:48:50;23.50;99.90
31387;DHT22;69978;50.096;8.448;2023-08-21T00:51:17;23.50;99.90
31387;DHT22;69978;50.096;8.448;2023-08-21T00:53:43;23.50;99.90
31387;DHT22;69978;50.096;8.448;2023-08-21T00:56:09;23.40;99.90
31387;DHT22;69978;50.096;8.448;2023-08-21T00:58:35;23.50;99.90
31387;DHT22;69978;50.096;8.448;2023-08-21T01:01:01;23.40;99.90
31387;DHT22;69978;50.096;8.448;2023-08-21T01:03:29;23.40;99.90
31387;DHT22;69978;50.096;8.448;2023-08-21T01:05:54;23.40;99.90
31387;DHT22;69978;50.096;8.448;2023-08-21T01:11:49;23.40;99.90
31387;DHT22;69978;50.096;8.448;2023-08-21T01:14:36;23.30;99.90
31387;DHT22;69978;50.096;8.448;2023-08-21T01:17:04;23.30;99.90
31387;DHT22;69978;50.096;8.448;2023-08-21T01:19:36;23.30;99.90
31387;DHT22;69978;50.096;8.448;2023-08-21T01:22:03;23.20;99.90
31387;DHT22;69978;50.096;8.448;2023-08-21T01:24:29;23.20;99.90
31387;DHT22;69978;50.096;8.448;2023-08-21T01:26:55;23.10;99.90
31387;DHT22;69978;50.096;8.448;2023-08-21T01:29:21;23.10;99.90
31387;DHT22;69978;50.096;8.448;2023-08-21T01:32:07;23.10;99.90
31387;DHT22;69978;50.096;8.448;2023-08-21T01:34:37;23.20;99.90
31387;DHT22;69978;50.096;8.448;2023-08-21T01:37:03;23.10;99.90
31387;DHT22;69978;50.096;8.448;2023-08-21T01:39:29;23.10;99.90
31387;DHT22;69978;50.096;8.448;2023-08-21T01:41:56;23.00;99.90
31387;DHT22;69978;50.096;8.448;2023-08-21T01:44:22;23.00;99.90
31387;DHT22;69978;50.096;8.448;2023-08-21T01:46:47;23.00;99.90
31387;DHT22;69978;50.096;8.448;2023-08-21T01:49:13;23.00;99.90
31387;DHT22;69978;50.096;8.448;2023-08-21T01:51:39;23.00;99.90
31387;DHT22;69978;50.096;8.448;2023-08-21T01:54:04;23.00;99.90
31387;DHT22;69978;50.096;8.448;2023-08-21T01:56:30;22.90;99.90
31387;DHT22;69978;50.096;8.448;2023-08-21T01:58:55;22.90;99.90
31387;DHT22;69978;50.096;8.448;2023-08-21T02:01:21;22.90;99.90
31387;DHT22;69978;50.096;8.448;2023-08-21T02:03:46;22.80;99.90
31387;DHT22;69978;50.096;8.448;2023-08-21T02:06:12;22.80;99.90
31387;DHT22;69978;50.096;8.448;2023-08-21T02:08:38;22.80;99.90
31387;DHT22;69978;50.096;8.448;2023-08-21T02:11:03;22.80;99.90
31387;DHT22;69978;50.096;8.448;2023-08-21T02:13:29;22.80;99.90
31387;DHT22;69978;50.096;8.448;2023-08-21T02:15:54;22.80;99.90
31387;DHT22;69978;50.096;8.448;2023-08-21T02:18:20;22.80;99.90
31387;DHT22;69978;50.096;8.448;2023-08-21T02:20:47;22.90;99.90
31387;DHT22;69978;50.096;8.448;2023-08-21T02:23:12;22.90;99.90
31387;DHT22;69978;50.096;8.448;2023-08-21T02:25:38;22.90;99.90
31387;DHT22;69978;50.096;8.448;2023-08-21T02:28:04;22.90;99.90
31387;DHT22;69978;50.096;8.448;2023-08-21T02:30:29;22.90;99.90
31387;DHT22;69978;50.096;8.448;2023-08-21T02:32:55;23.00;99.90
31387;DHT22;69978;50.096;8.448;2023-08-21T02:35:21;22.90;99.90
31387;DHT22;69978;50.096;8.448;2023-08-21T02:37:46;22.90;99.90
31387;DHT22;69978;50.096;8.448;2023-08-21T02:40:12;22.90;99.90
31387;DHT22;69978;50.096;8.448;2023-08-21T02:42:38;22.90;99.90
31387;DHT22;69978;50.096;8.448;2023-08-21T02:45:03;22.90;99.90
31387;DHT22;69978;50.096;8.448;2023-08-21T02:47:42;22.90;99.90
31387;DHT22;69978;50.096;8.448;2023-08-21T02:50:10;22.90;99.90
31387;DHT22;69978;50.096;8.448;2023-08-21T02:52:37;22.90;99.90
31387;DHT22;69978;50.096;8.448;2023-08-21T02:55:03;22.90;99.90
31387;DHT22;69978;50.096;8.448;2023-08-21T02:57:29;22.90;99.90
31387;DHT22;69978;50.096;8.448;2023-08-21T02:59:55;22.90;99.90
31387;DHT22;69978;50.096;8.448;2023-08-21T03:02:21;22.90;99.90
31387;DHT22;69978;50.096;8.448;2023-08-21T03:04:47;22.90;99.90
31387;DHT22;69978;50.096;8.448;2023-08-21T03:07:13;22.90;99.90
31387;DHT22;69978;50.096;8.448;2023-08-21T03:09:40;22.90;99.90
31387;DHT22;69978;50.096;8.448;2023-08-21T03:12:06;22.90;99.90
31387;DHT22;69978;50.096;8.448;2023-08-21T03:14:32;22.90;99.90
31387;DHT22;69978;50.096;8.448;2023-08-21T03:16:58;22.80;99.90
31387;DHT22;69978;50.096;8.448;2023-08-21T03:19:23;22.80;99.90
31387;DHT22;69978;50.096;8.448;2023-08-21T03:21:49;22.80;99.90
31387;DHT22;69978;50.096;8.448;2023-08-21T03:24:15;22.90;99.90
31387;DHT22;69978;50.096;8.448;2023-08-21T03:26:40;22.90;99.90
31387;DHT22;69978;50.096;8.448;2023-08-21T03:29:06;22.90;99.90
31387;DHT22;69978;50.096;8.448;2023-08-21T03:31:31;22.90;99.90
31387;DHT22;69978;50.096;8.448;2023-08-21T03:33:57;22.90;99.90
31387;DHT22;69978;50.096;8.448;2023-08-21T03:36:23;22.90;99.90
31387;DHT22;69978;50.096;8.448;2023-08-21T03:39:02;22.90;99.90
31387;DHT22;69978;50.096;8.448;2023-08-21T03:41:29;22.80;99.90
31387;DHT22;69978;50.096;8.448;2023-08-21T03:43:54;22.80;99.90
31387;DHT22;69978;50.096;8.448;2023-08-21T03:46:20;22.80;99.90
31387;DHT22;69978;50.096;8.448;2023-08-21T03:48:46;22.80;99.90
31387;DHT22;69978;50.096;8.448;2023-08-21T03:51:11;22.80;99.90
31387;DHT22;69978;50.096;8.448;2023-08-21T03:53:37;22.70;99.90
31387;DHT22;69978;50.096;8.448;2023-08-21T03:56:02;22.70;99.90
31387;DHT22;69978;50.096;8.448;2023-08-21T03:58:28;22.70;99.90
31387;DHT22;69978;50.096;8.448;2023-08-21T04:00:54;22.60;99.90
31387;DHT22;69978;50.096;8.448;2023-08-21T04:03:20;22.60;99.90
31387;DHT22;69978;50.096;8.448;2023-08-21T04:05:45;22.60;99.90
31387;DHT22;69978;50.096;8.448;2023-08-21T04:08:11;22.50;99.90
31387;DHT22;69978;50.096;8.448;2023-08-21T04:10:37;22.50;99.90
31387;DHT22;69978;50.096;8.448;2023-08-21T04:13:04;22.50;99.90
31387;DHT22;69978;50.096;8.448;2023-08-21T04:15:30;22.50;99.90
31387;DHT22;69978;50.096;8.448;2023-08-21T04:17:55;22.50;99.90
31387;DHT22;69978;50.096;8.448;2023-08-21T04:20:21;22.50;99.90
31387;DHT22;69978;50.096;8.448;2023-08-21T04:22:47;22.40;99.90
31387;DHT22;69978;50.096;8.448;2023-08-21T04:25:13;22.40;99.90
31387;DHT22;69978;50.096;8.448;2023-08-21T04:27:38;22.40;99.90
31387;DHT22;69978;50.096;8.448;2023-08-21T04:30:04;22.40;99.90
31387;DHT22;69978;50.096;8.448;2023-08-21T04:32:31;22.50;99.90
31387;DHT22;69978;50.096;8.448;2023-08-21T04:34:57;22.50;99.90
31387;DHT22;69978;50.096;8.448;2023-08-21T04:37:23;22.50;99.90
31387;DHT22;69978;50.096;8.448;2023-08-21T04:39:52;22.50;99.90
31387;DHT22;69978;50.096;8.448;2023-08-21T04:42:18;22.40;99.90
31387;DHT22;69978;50.096;8.448;2023-08-21T04:44:44;22.40;99.90
31387;DHT22;69978;50.096;8.448;2023-08-21T04:47:23;22.30;99.90
31387;DHT22;69978;50.096;8.448;2023-08-21T04:49:53;22.40;99.90
31387;DHT22;69978;50.096;8.448;2023-08-21T04:52:20;22.30;99.90
31387;DHT22;69978;50.096;8.448;2023-08-21T04:54:47;22.20;99.90
31387;DHT22;69978;50.096;8.448;2023-08-21T04:57:12;22.20;99.90
31387;DHT22;69978;50.096;8.448;2023-08-21T04:59:43;22.10;99.90
31387;DHT22;69978;50.096;8.448;2023-08-21T05:02:09;22.00;99.90
31387;DHT22;69978;50.096;8.448;2023-08-21T05:04:36;22.00;99.90
31387;DHT22;69978;50.096;8.448;2023-08-21T05:07:02;22.00;99.90
31387;DHT22;69978;50.096;8.448;2023-08-21T05:09:28;22.00;99.90
31387;DHT22;69978;50.096;8.448;2023-08-21T05:11:54;22.00;99.90
31387;DHT22;69978;50.096;8.448;2023-08-21T05:14:22;22.00;99.90
31387;DHT22;69978;50.096;8.448;2023-08-21T05:16:49;21.90;99.90
31387;DHT22;69978;50.096;8.448;2023-08-21T05:19:15;22.00;99.90
31387;DHT22;69978;50.096;8.448;2023-08-21T05:21:40;21.90;99.90
31387;DHT22;69978;50.096;8.448;2023-08-21T05:24:06;22.00;99.90
31387;DHT22;69978;50.096;8.448;2023-08-21T05:26:31;22.00;99.90
31387;DHT22;69978;50.096;8.448;2023-08-21T05:28:57;22.00;99.90
31387;DHT22;69978;50.096;8.448;2023-08-21T05:31:23;22.00;99.90
31387;DHT22;69978;50.096;8.448;2023-08-21T05:33:48;22.00;99.90
31387;DHT22;69978;50.096;8.448;2023-08-21T05:36:14;22.00;99.90
31387;DHT22;69978;50.096;8.448;2023-08-21T05:38:39;22.00;99.90
31387;DHT22;69978;50.096;8.448;2023-08-21T05:41:05;22.10;99.90
31387;DHT22;69978;50.096;8.448;2023-08-21T05:43:30;22.10;99.90
31387;DHT22;69978;50.096;8.448;2023-08-21T05:45:56;22.20;99.90
31387;DHT22;69978;50.096;8.448;2023-08-21T05:48:22;22.30;99.90
31387;DHT22;69978;50.096;8.448;2023-08-21T05:50:51;22.30;99.90
31387;DHT22;69978;50.096;8.448;2023-08-21T05:53:17;22.40;99.90
31387;DHT22;69978;50.096;8.448;2023-08-21T05:55:42;22.40;99.90
31387;DHT22;69978;50.096;8.448;2023-08-21T05:58:08;22.40;99.90
31387;DHT22;69978;50.096;8.448;2023-08-21T06:00:34;22.40;99.90
31387;DHT22;69978;50.096;8.448;2023-08-21T06:03:00;22.50;99.90
31387;DHT22;69978;50.096;8.448;2023-08-21T06:05:26;22.50;99.90
31387;DHT22;69978;50.096;8.448;2023-08-21T06:07:51;22.50;99.90
31387;DHT22;69978;50.096;8.448;2023-08-21T06:10:17;22.60;99.90
31387;DHT22;69978;50.096;8.448;2023-08-21T06:12:43;22.60;99.90
31387;DHT22;69978;50.096;8.448;2023-08-21T06:15:09;22.60;99.90
31387;DHT22;69978;50.096;8.448;2023-08-21T06:17:35;22.60;99.90
31387;DHT22;69978;50.096;8.448;2023-08-21T06:20:01;22.60;99.90
31387;DHT22;69978;50.096;8.448;2023-08-21T06:22:28;22.70;99.90
31387;DHT22;69978;50.096;8.448;2023-08-21T06:24:53;22.80;99.90
31387;DHT22;69978;50.096;8.448;2023-08-21T06:27:19;22.80;99.90
31387;DHT22;69978;50.096;8.448;2023-08-21T06:29:44;22.90;99.90
31387;DHT22;69978;50.096;8.448;2023-08-21T06:32:10;22.90;99.90
31387;DHT22;69978;50.096;8.448;2023-08-21T06:34:37;23.00;99.90
31387;DHT22;69978;50.096;8.448;2023-08-21T06:37:02;23.00;99.90
31387;DHT22;69978;50.096;8.448;2023-08-21T06:39:28;23.00;99.90
31387;DHT22;69978;50.096;8.448;2023-08-21T06:41:54;23.10;99.90
31387;DHT22;69978;50.096;8.448;2023-08-21T06:44:20;23.10;99.90
31387;DHT22;69978;50.096;8.448;2023-08-21T06:46:45;23.20;99.90
31387;DHT22;69978;50.096;8.448;2023-08-21T06:49:11;23.30;99.90
31387;DHT22;69978;50.096;8.448;2023-08-21T06:51:36;23.30;99.90
31387;DHT22;69978;50.096;8.448;2023-08-21T06:54:02;23.40;99.90
31387;DHT22;69978;50.096;8.448;2023-08-21T06:56:28;23.40;99.90
31387;DHT22;69978;50.096;8.448;2023-08-21T06:58:53;23.40;99.90
31387;DHT22;69978;50.096;8.448;2023-08-21T07:01:20;23.40;99.90
31387;DHT22;69978;50.096;8.448;2023-08-21T07:03:46;23.50;99.90
31387;DHT22;69978;50.096;8.448;2023-08-21T07:06:12;23.50;99.90
31387;DHT22;69978;50.096;8.448;2023-08-21T07:08:37;23.60;99.90
31387;DHT22;69978;50.096;8.448;2023-08-21T07:11:06;23.70;99.90
31387;DHT22;69978;50.096;8.448;2023-08-21T07:13:33;23.70;99.90
31387;DHT22;69978;50.096;8.448;2023-08-21T07:15:59;23.80;99.90
31387;DHT22;69978;50.096;8.448;2023-08-21T07:18:27;23.80;99.90
31387;DHT22;69978;50.096;8.448;2023-08-21T07:20:53;23.80;99.90
31387;DHT22;69978;50.096;8.448;2023-08-21T07:23:19;23.90;99.90
31387;DHT22;69978;50.096;8.448;2023-08-21T07:25:44;23.90;99.90
31387;DHT22;69978;50.096;8.448;2023-08-21T07:28:10;23.90;99.90
31387;DHT22;69978;50.096;8.448;2023-08-21T07:30:37;24.00;99.90
31387;DHT22;69978;50.096;8.448;2023-08-21T07:33:04;24.10;99.90
31387;DHT22;69978;50.096;8.448;2023-08-21T07:35:30;24.10;99.90
31387;DHT22;69978;50.096;8.448;2023-08-21T07:37:56;24.10;99.90
31387;DHT22;69978;50.096;8.448;2023-08-21T07:40:21;24.20;99.90
31387;DHT22;69978;50.096;8.448;2023-08-21T07:42:47;24.20;99.90
31387;DHT22;69978;50.096;8.448;2023-08-21T07:45:13;24.30;99.90
31387;DHT22;69978;50.096;8.448;2023-08-21T07:47:38;24.40;99.90
31387;DHT22;69978;50.096;8.448;2023-08-21T07:50:07;24.40;99.90
31387;DHT22;69978;50.096;8.448;2023-08-21T07:52:34;24.50;99.90
31387;DHT22;69978;50.096;8.448;2023-08-21T07:55:00;24.50;99.90
31387;DHT22;69978;50.096;8.448;2023-08-21T07:57:29;24.60;99.90
31387;DHT22;69978;50.096;8.448;2023-08-21T07:59:56;24.60;99.90
31387;DHT22;69978;50.096;8.448;2023-08-21T08:02:22;24.70;99.90
31387;DHT22;69978;50.096;8.448;2023-08-21T08:04:48;24.80;99.90
31387;DHT22;69978;50.096;8.448;2023-08-21T08:07:13;24.90;99.90
31387;DHT22;69978;50.096;8.448;2023-08-21T08:09:39;24.90;99.90
31387;DHT22;69978;50.096;8.448;2023-08-21T08:12:05;25.00;99.90
31387;DHT22;69978;50.096;8.448;2023-08-21T08:14:31;25.10;99.90
31387;DHT22;69978;50.096;8.448;2023-08-21T08:16:57;25.20;99.90
31387;DHT22;69978;50.096;8.448;2023-08-21T08:19:22;25.30;99.90
31387;DHT22;69978;50.096;8.448;2023-08-21T08:21:48;25.50;99.90
31387;DHT22;69978;50.096;8.448;2023-08-21T08:24:14;26.20;99.90
31387;DHT22;69978;50.096;8.448;2023-08-21T08:26:39;27.10;99.90
31387;DHT22;69978;50.096;8.448;2023-08-21T08:29:06;27.90;99.90
31387;DHT22;69978;50.096;8.448;2023-08-21T08:31:31;28.50;99.90
31387;DHT22;69978;50.096;8.448;2023-08-21T08:33:57;28.90;99.90
31387;DHT22;69978;50.096;8.448;2023-08-21T08:36:23;29.20;99.90
31387;DHT22;69978;50.096;8.448;2023-08-21T08:38:48;29.40;99.90
31387;DHT22;69978;50.096;8.448;2023-08-21T08:41:30;29.60;99.90
31387;DHT22;69978;50.096;8.448;2023-08-21T08:43:59;29.80;99.90
31387;DHT22;69978;50.096;8.448;2023-08-21T08:46:27;30.00;99.90
31387;DHT22;69978;50.096;8.448;2023-08-21T08:48:54;30.20;99.90
31387;DHT22;69978;50.096;8.448;2023-08-21T08:51:20;30.30;99.90
31387;DHT22;69978;50.096;8.448;2023-08-21T08:53:47;30.40;99.90
31387;DHT22;69978;50.096;8.448;2023-08-21T08:56:13;30.40;99.90
31387;DHT22;69978;50.096;8.448;2023-08-21T08:58:38;30.50;99.90
31387;DHT22;69978;50.096;8.448;2023-08-21T09:01:05;30.60;99.90
31387;DHT22;69978;50.096;8.448;2023-08-21T09:03:30;30.90;99.90
31387;DHT22;69978;50.096;8.448;2023-08-21T09:05:56;30.90;99.90
31387;DHT22;69978;50.096;8.448;2023-08-21T09:08:25;31.00;99.90
31387;DHT22;69978;50.096;8.448;2023-08-21T09:10:51;31.10;99.90
31387;DHT22;69978;50.096;8.448;2023-08-21T09:13:18;30.90;99.90
31387;DHT22;69978;50.096;8.448;2023-08-21T09:15:51;31.20;99.90
31387;DHT22;69978;50.096;8.448;2023-08-21T09:18:18;31.20;99.90
31387;DHT22;69978;50.096;8.448;2023-08-21T09:20:44;31.40;99.90
31387;DHT22;69978;50.096;8.448;2023-08-21T09:23:17;31.70;99.90
31387;DHT22;69978;50.096;8.448;2023-08-21T09:25:45;31.10;99.90
31387;DHT22;69978;50.096;8.448;2023-08-21T09:28:13;31.00;99.90
31387;DHT22;69978;50.096;8.448;2023-08-21T09:30:53;31.40;99.90
31387;DHT22;69978;50.096;8.448;2023-08-21T09:33:23;31.80;99.90
31387;DHT22;69978;50.096;8.448;2023-08-21T09:35:52;32.20;99.90
31387;DHT22;69978;50.096;8.448;2023-08-21T09:38:18;32.40;99.90
31387;DHT22;69978;50.096;8.448;2023-08-21T09:40:54;32.70;99.90
31387;DHT22;69978;50.096;8.448;2023-08-21T09:43:21;32.90;99.90
31387;DHT22;69978;50.096;8.448;2023-08-21T09:45:52;32.40;99.90
31387;DHT22;69978;50.096;8.448;2023-08-21T09:48:22;32.60;99.90
31387;DHT22;69978;50.096;8.448;2023-08-21T09:50:50;32.80;99.90
31387;DHT22;69978;50.096;8.448;2023-08-21T09:53:16;33.20;99.90
31387;DHT22;69978;50.096;8.448;2023-08-21T09:55:42;33.90;99.90
31387;DHT22;69978;50.096;8.448;2023-08-21T09:58:08;33.80;99.90
31387;DHT22;69978;50.096;8.448;2023-08-21T10:00:36;33.60;99.90
31387;DHT22;69978;50.096;8.448;2023-08-21T10:03:04;33.90;99.90
31387;DHT22;69978;50.096;8.448;2023-08-21T10:05:32;34.20;99.90
31387;DHT22;69978;50.096;8.448;2023-08-21T10:08:01;33.70;99.90
31387;DHT22;69978;50.096;8.448;2023-08-21T10:10:30;33.80;99.90
31387;DHT22;69978;50.096;8.448;2023-08-21T10:12:56;33.90;99.90
31387;DHT22;69978;50.096;8.448;2023-08-21T10:15:22;33.90;99.90
31387;DHT22;69978;50.096;8.448;2023-08-21T10:17:49;34.20;99.90
31387;DHT22;69978;50.096;8.448;2023-08-21T10:20:25;34.50;99.90
31387;DHT22;69978;50.096;8.448;2023-08-21T10:23:02;34.40;99.90
31387;DHT22;69978;50.096;8.448;2023-08-21T10:25:28;34.10;99.90
31387;DHT22;69978;50.096;8.448;2023-08-21T10:27:59;33.90;99.90
31387;DHT22;69978;50.096;8.448;2023-08-21T10:30:29;33.90;99.90
31387;DHT22;69978;50.096;8.448;2023-08-21T10:32:57;33.70;99.90
31387;DHT22;69978;50.096;8.448;2023-08-21T10:35:25;33.60;99.90
31387;DHT22;69978;50.096;8.448;2023-08-21T10:38:13;33.90;99.90
31387;DHT22;69978;50.096;8.448;2023-08-21T10:40:42;34.00;99.90
31387;DHT22;69978;50.096;8.448;2023-08-21T10:43:46;34.40;99.90
31387;DHT22;69978;50.096;8.448;2023-08-21T10:46:13;34.80;99.90
31387;DHT22;69978;50.096;8.448;2023-08-21T10:48:41;34.40;99.90
31387;DHT22;69978;50.096;8.448;2023-08-21T10:51:08;33.90;99.90
31387;DHT22;69978;50.096;8.448;2023-08-21T10:53:34;33.40;99.90
31387;DHT22;69978;50.096;8.448;2023-08-21T10:56:04;33.20;99.90
31387;DHT22;69978;50.096;8.448;2023-08-21T10:58:43;33.70;99.90
31387;DHT22;69978;50.096;8.448;2023-08-21T11:01:09;34.10;99.90
31387;DHT22;69978;50.096;8.448;2023-08-21T11:03:38;34.20;99.90
31387;DHT22;69978;50.096;8.448;2023-08-21T11:06:06;34.40;99.90
31387;DHT22;69978;50.096;8.448;2023-08-21T11:08:34;34.50;99.90
31387;DHT22;69978;50.096;8.448;2023-08-21T11:11:04;34.90;99.90
31387;DHT22;69978;50.096;8.448;2023-08-21T11:13:31;35.20;99.90
31387;DHT22;69978;50.096;8.448;2023-08-21T11:16:05;35.20;99.90
31387;DHT22;69978;50.096;8.448;2023-08-21T11:18:36;35.40;99.90
31387;DHT22;69978;50.096;8.448;2023-08-21T11:21:06;35.40;99.90
31387;DHT22;69978;50.096;8.448;2023-08-21T11:23:43;34.90;99.90
31387;DHT22;69978;50.096;8.448;2023-08-21T11:26:12;34.90;99.90
31387;DHT22;69978;50.096;8.448;2023-08-21T11:28:38;35.10;99.90
31387;DHT22;69978;50.096;8.448;2023-08-21T11:31:06;35.10;99.90
31387;DHT22;69978;50.096;8.448;2023-08-21T11:33:32;35.20;99.90
31387;DHT22;69978;50.096;8.448;2023-08-21T11:35:59;35.20;99.90
31387;DHT22;69978;50.096;8.448;2023-08-21T11:38:26;35.30;99.90
31387;DHT22;69978;50.096;8.448;2023-08-21T11:40:59;35.40;99.90
31387;DHT22;69978;50.096;8.448;2023-08-21T11:43:36;35.50;99.90
31387;DHT22;69978;50.096;8.448;2023-08-21T11:46:06;35.70;99.90
31387;DHT22;69978;50.096;8.448;2023-08-21T11:48:32;35.90;99.90
31387;DHT22;69978;50.096;8.448;2023-08-21T11:50:58;35.60;99.90
31387;DHT22;69978;50.096;8.448;2023-08-21T11:53:32;35.50;99.90
31387;DHT22;69978;50.096;8.448;2023-08-21T11:55:59;35.70;99.90
31387;DHT22;69978;50.096;8.448;2023-08-21T11:58:27;35.80;99.90
31387;DHT22;69978;50.096;8.448;2023-08-21T12:00:54;35.80;99.90
31387;DHT22;69978;50.096;8.448;2023-08-21T12:03:21;35.70;99.90
31387;DHT22;69978;50.096;8.448;2023-08-21T12:05:47;36.00;99.90
31387;DHT22;69978;50.096;8.448;2023-08-21T12:08:13;36.20;99.90
31387;DHT22;69978;50.096;8.448;2023-08-21T12:10:39;36.30;99.90
31387;DHT22;69978;50.096;8.448;2023-08-21T12:13:05;36.40;99.90
31387;DHT22;69978;50.096;8.448;2023-08-21T12:15:30;36.50;99.90
31387;DHT22;69978;50.096;8.448;2023-08-21T12:17:56;36.40;99.90
31387;DHT22;69978;50.096;8.448;2023-08-21T12:20:21;36.60;99.90
31387;DHT22;69978;50.096;8.448;2023-08-21T12:22:47;36.60;99.90
31387;DHT22;69978;50.096;8.448;2023-08-21T12:25:13;36.40;99.90
31387;DHT22;69978;50.096;8.448;2023-08-21T12:27:39;36.40;99.90
31387;DHT22;69978;50.096;8.448;2023-08-21T12:30:05;36.50;99.90
31387;DHT22;69978;50.096;8.448;2023-08-21T12:32:31;36.10;99.90
31387;DHT22;69978;50.096;8.448;2023-08-21T12:34:57;35.50;99.90
31387;DHT22;69978;50.096;8.448;2023-08-21T12:37:22;35.60;99.90
31387;DHT22;69978;50.096;8.448;2023-08-21T12:39:48;35.70;99.90
31387;DHT22;69978;50.096;8.448;2023-08-21T12:42:14;35.90;99.90
31387;DHT22;69978;50.096;8.448;2023-08-21T12:44:39;36.20;99.90
31387;DHT22;69978;50.096;8.448;2023-08-21T12:47:05;35.80;99.90
31387;DHT22;69978;50.096;8.448;2023-08-21T12:49:31;36.00;99.90
31387;DHT22;69978;50.096;8.448;2023-08-21T12:51:57;36.20;99.90
31387;DHT22;69978;50.096;8.448;2023-08-21T12:54:22;36.40;99.90
31387;DHT22;69978;50.096;8.448;2023-08-21T12:56:48;36.60;99.90
31387;DHT22;69978;50.096;8.448;2023-08-21T12:59:14;36.70;99.90
31387;DHT22;69978;50.096;8.448;2023-08-21T13:01:39;36.70;99.90
31387;DHT22;69978;50.096;8.448;2023-08-21T13:04:05;36.50;99.90
31387;DHT22;69978;50.096;8.448;2023-08-21T13:06:31;36.60;99.90
31387;DHT22;69978;50.096;8.448;2023-08-21T13:08:56;36.40;99.90
31387;DHT22;69978;50.096;8.448;2023-08-21T13:11:22;36.50;99.90
31387;DHT22;69978;50.096;8.448;2023-08-21T13:13:48;36.40;99.90
31387;DHT22;69978;50.096;8.448;2023-08-21T13:16:13;36.50;99.90
31387;DHT22;69978;50.096;8.448;2023-08-21T13:18:39;35.90;99.90
31387;DHT22;69978;50.096;8.448;2023-08-21T13:21:05;35.90;99.90
31387;DHT22;69978;50.096;8.448;2023-08-21T13:23:30;35.90;99.90
31387;DHT22;69978;50.096;8.448;2023-08-21T13:25:57;36.00;99.90
31387;DHT22;69978;50.096;8.448;2023-08-21T13:28:23;36.00;99.90
31387;DHT22;69978;50.096;8.448;2023-08-21T13:30:49;35.70;99.90
31387;DHT22;69978;50.096;8.448;2023-08-21T13:33:15;35.70;99.90
31387;DHT22;69978;50.096;8.448;2023-08-21T13:35:44;35.60;99.90
31387;DHT22;69978;50.096;8.448;2023-08-21T13:38:11;35.60;99.90
31387;DHT22;69978;50.096;8.448;2023-08-21T13:40:39;35.50;99.90
31387;DHT22;69978;50.096;8.448;2023-08-21T13:43:06;35.60;99.90
31387;DHT22;69978;50.096;8.448;2023-08-21T13:45:32;35.50;99.90
31387;DHT22;69978;50.096;8.448;2023-08-21T13:47:58;35.60;99.90
31387;DHT22;69978;50.096;8.448;2023-08-21T13:50:25;35.70;99.90
31387;DHT22;69978;50.096;8.448;2023-08-21T13:52:51;35.90;99.90
31387;DHT22;69978;50.096;8.448;2023-08-21T13:55:16;36.00;99.90
31387;DHT22;69978;50.096;8.448;2023-08-21T13:57:42;36.10;99.90
31387;DHT22;69978;50.096;8.448;2023-08-21T14:00:09;36.20;99.90
31387;DHT22;69978;50.096;8.448;2023-08-21T14:02:38;36.40;99.90
31387;DHT22;69978;50.096;8.448;2023-08-21T14:05:04;36.40;99.90
31387;DHT22;69978;50.096;8.448;2023-08-21T14:07:31;36.30;99.90
31387;DHT22;69978;50.096;8.448;2023-08-21T14:09:57;36.10;99.90
31387;DHT22;69978;50.096;8.448;2023-08-21T14:12:23;35.80;99.90
31387;DHT22;69978;50.096;8.448;2023-08-21T14:14:48;35.50;99.90
31387;DHT22;69978;50.096;8.448;2023-08-21T14:17:14;35.20;99.90
31387;DHT22;69978;50.096;8.448;2023-08-21T14:19:40;35.20;99.90
31387;DHT22;69978;50.096;8.448;2023-08-21T14:22:06;35.10;99.90
31387;DHT22;69978;50.096;8.448;2023-08-21T14:24:32;34.80;99.90
31387;DHT22;69978;50.096;8.448;2023-08-21T14:26:58;34.60;99.90
31387;DHT22;69978;50.096;8.448;2023-08-21T14:29:23;34.50;99.90
31387;DHT22;69978;50.096;8.448;2023-08-21T14:31:49;34.40;99.90
31387;DHT22;69978;50.096;8.448;2023-08-21T14:34:19;34.20;99.90
31387;DHT22;69978;50.096;8.448;2023-08-21T14:36:45;34.00;99.90
31387;DHT22;69978;50.096;8.448;2023-08-21T14:39:11;33.80;99.90
31387;DHT22;69978;50.096;8.448;2023-08-21T14:41:37;33.80;99.90
31387;DHT22;69978;50.096;8.448;2023-08-21T14:44:03;33.90;99.90
31387;DHT22;69978;50.096;8.448;2023-08-21T14:46:29;34.00;99.90
31387;DHT22;69978;50.096;8.448;2023-08-21T14:48:55;34.10;99.90
31387;DHT22;69978;50.096;8.448;2023-08-21T14:51:20;34.20;99.90
31387;DHT22;69978;50.096;8.448;2023-08-21T14:53:46;34.30;99.90
31387;DHT22;69978;50.096;8.448;2023-08-21T14:56:12;34.20;99.90
31387;DHT22;69978;50.096;8.448;2023-08-21T14:58:37;34.10;99.90
31387;DHT22;69978;50.096;8.448;2023-08-21T15:01:03;33.80;99.90
31387;DHT22;69978;50.096;8.448;2023-08-21T15:03:30;33.80;99.90
31387;DHT22;69978;50.096;8.448;2023-08-21T15:05:57;33.80;99.90
31387;DHT22;69978;50.096;8.448;2023-08-21T15:08:23;33.80;99.90
31387;DHT22;69978;50.096;8.448;2023-08-21T15:10:49;33.90;99.90
31387;DHT22;69978;50.096;8.448;2023-08-21T15:13:14;33.90;99.90
31387;DHT22;69978;50.096;8.448;2023-08-21T15:15:40;33.80;99.90
31387;DHT22;69978;50.096;8.448;2023-08-21T15:18:06;33.70;99.90
31387;DHT22;69978;50.096;8.448;2023-08-21T15:20:31;33.50;99.90
31387;DHT22;69978;50.096;8.448;2023-08-21T15:22:57;33.40;99.90
31387;DHT22;69978;50.096;8.448;2023-08-21T15:25:22;33.30;99.90
31387;DHT22;69978;50.096;8.448;2023-08-21T15:27:48;33.30;99.90
31387;DHT22;69978;50.096;8.448;2023-08-21T15:30:14;33.20;99.90